sensor_id;sensor_type;location;lat;lon;timestamp;pressure;altitude;pressure_sealevel;temperature;humidity
72587;BME280;60621;49.576;11.024;2022-08-19T00:00:22;97743.69;;;21.39;76.47
72587;BME280;60621;49.576;11.024;2022-08-19T00:01:25;97746.63;;;21.32;76.54
72587;BME280;60621;49.576;11.024;2022-08-19T00:02:30;97741.38;;;21.28;76.69
72587;BME280;60621;49.576;11.024;2022-08-19T00:03:33;97748.97;;;21.30;76.43
72587;BME280;60621;49.576;11.024;2022-08-19T00:04:35;97750.47;;;21.31;76.38
72587;BME280;60621;49.576;11.024;2022-08-19T00:05:38;97741.66;;;21.30;76.39
72587;BME280;60621;49.576;11.024;2022-08-19T00:06:41;97744.88;;;21.38;76.24
72587;BME280;60621;49.576;11.024;2022-08-19T00:07:43;97739.56;;;21.47;75.61
72587;BME280;60621;49.576;11.024;2022-08-19T00:08:45;97745.09;;;21.53;75.84
72587;BME280;60621;49.576;11.024;2022-08-19T00:09:46;97748.78;;;21.46;76.08
72587;BME280;60621;49.576;11.024;2022-08-19T00:10:48;97742.59;;;21.36;76.26
72587;BME280;60621;49.576;11.024;2022-08-19T00:11:52;97745.75;;;21.35;76.13
72587;BME280;60621;49.576;11.024;2022-08-19T00:12:54;97745.00;;;21.34;76.07
72587;BME280;60621;49.576;11.024;2022-08-19T00:13:56;97737.41;;;21.33;76.22
72587;BME280;60621;49.576;11.024;2022-08-19T00:14:57;97734.81;;;21.29;76.88
72587;BME280;60621;49.576;11.024;2022-08-19T00:15:59;97740.00;;;21.23;77.14
72587;BME280;60621;49.576;11.024;2022-08-19T00:17:02;97741.03;;;21.26;77.03
72587;BME280;60621;49.576;11.024;2022-08-19T00:18:04;97739.88;;;21.27;76.75
72587;BME280;60621;49.576;11.024;2022-08-19T00:19:06;97734.31;;;21.21;77.09
72587;BME280;60621;49.576;11.024;2022-08-19T00:20:12;97740.88;;;21.20;77.33
72587;BME280;60621;49.576;11.024;2022-08-19T00:21:14;97735.50;;;21.20;77.11
72587;BME280;60621;49.576;11.024;2022-08-19T00:22:16;97737.72;;;21.13;76.89
72587;BME280;60621;49.576;11.024;2022-08-19T00:23:19;97727.53;;;21.08;77.14
72587;BME280;60621;49.576;11.024;2022-08-19T00:24:21;97726.97;;;21.13;76.84
72587;BME280;60621;49.576;11.024;2022-08-19T00:25:23;97730.09;;;21.11;77.08
72587;BME280;60621;49.576;11.024;2022-08-19T00:26:30;97724.72;;;21.11;77.01
72587;BME280;60621;49.576;11.024;2022-08-19T00:27:32;97730.72;;;21.15;76.94
72587;BME280;60621;49.576;11.024;2022-08-19T00:28:34;97729.66;;;21.13;77.13
72587;BME280;60621;49.576;11.024;2022-08-19T00:29:36;97727.72;;;21.13;76.98
72587;BME280;60621;49.576;11.024;2022-08-19T00:30:38;97731.56;;;21.12;77.54
72587;BME280;60621;49.576;11.024;2022-08-19T00:31:40;97730.19;;;21.08;77.05
72587;BME280;60621;49.576;11.024;2022-08-19T00:32:43;97730.97;;;21.08;77.44
72587;BME280;60621;49.576;11.024;2022-08-19T00:33:44;97728.16;;;21.12;77.29
72587;BME280;60621;49.576;11.024;2022-08-19T00:34:46;97734.88;;;21.16;76.99
72587;BME280;60621;49.576;11.024;2022-08-19T00:35:47;97729.69;;;21.22;76.64
72587;BME280;60621;49.576;11.024;2022-08-19T00:36:56;97733.84;;;21.14;76.99
72587;BME280;60621;49.576;11.024;2022-08-19T00:37:58;97741.44;;;21.15;77.13
72587;BME280;60621;49.576;11.024;2022-08-19T00:39:00;97736.06;;;21.15;77.25
72587;BME280;60621;49.576;11.024;2022-08-19T00:40:05;97736.91;;;21.03;77.53
72587;BME280;60621;49.576;11.024;2022-08-19T00:41:07;97744.25;;;20.90;77.94
72587;BME280;60621;49.576;11.024;2022-08-19T00:42:10;97741.25;;;20.88;78.13
72587;BME280;60621;49.576;11.024;2022-08-19T00:43:13;97743.50;;;20.89;77.78
72587;BME280;60621;49.576;11.024;2022-08-19T00:44:21;97747.34;;;20.88;78.29
72587;BME280;60621;49.576;11.024;2022-08-19T00:45:28;97743.44;;;20.80;77.98
72587;BME280;60621;49.576;11.024;2022-08-19T00:46:38;97762.38;;;20.86;78.18
72587;BME280;60621;49.576;11.024;2022-08-19T00:47:40;97757.41;;;20.97;77.47
72587;BME280;60621;49.576;11.024;2022-08-19T00:48:42;97758.78;;;21.02;77.04
72587;BME280;60621;49.576;11.024;2022-08-19T00:49:47;97757.84;;;20.95;77.64
72587;BME280;60621;49.576;11.024;2022-08-19T00:50:52;97758.16;;;20.97;77.62
72587;BME280;60621;49.576;11.024;2022-08-19T00:52:01;97751.91;;;21.01;77.49
72587;BME280;60621;49.576;11.024;2022-08-19T00:53:03;97760.59;;;21.05;77.19
72587;BME280;60621;49.576;11.024;2022-08-19T00:54:05;97755.84;;;21.09;77.02
72587;BME280;60621;49.576;11.024;2022-08-19T00:55:08;97752.53;;;21.05;77.18
72587;BME280;60621;49.576;11.024;2022-08-19T00:56:12;97754.78;;;21.06;77.35
72587;BME280;60621;49.576;11.024;2022-08-19T00:57:18;97753.47;;;21.11;76.99
72587;BME280;60621;49.576;11.024;2022-08-19T00:58:27;97758.09;;;21.10;76.79
72587;BME280;60621;49.576;11.024;2022-08-19T00:59:29;97753.78;;;21.13;76.91
72587;BME280;60621;49.576;11.024;2022-08-19T01:00:50;97751.84;;;21.13;77.06
72587;BME280;60621;49.576;11.024;2022-08-19T01:01:52;97753.34;;;21.14;76.76
72587;BME280;60621;49.576;11.024;2022-08-19T01:02:54;97762.75;;;21.19;76.44
72587;BME280;60621;49.576;11.024;2022-08-19T01:03:56;97759.81;;;21.26;76.79
72587;BME280;60621;49.576;11.024;2022-08-19T01:05:03;97769.06;;;21.25;77.06
72587;BME280;60621;49.576;11.024;2022-08-19T01:06:06;97757.28;;;21.22;77.44
72587;BME280;60621;49.576;11.024;2022-08-19T01:07:08;97765.75;;;21.21;77.42
72587;BME280;60621;49.576;11.024;2022-08-19T01:08:17;97768.00;;;21.22;77.43
72587;BME280;60621;49.576;11.024;2022-08-19T01:09:20;97759.16;;;21.13;77.36
72587;BME280;60621;49.576;11.024;2022-08-19T01:10:25;97755.28;;;21.14;77.74
72587;BME280;60621;49.576;11.024;2022-08-19T01:11:28;97759.63;;;21.20;77.59
72587;BME280;60621;49.576;11.024;2022-08-19T01:12:31;97763.25;;;21.27;76.96
72587;BME280;60621;49.576;11.024;2022-08-19T01:13:33;97762.06;;;21.28;76.57
72587;BME280;60621;49.576;11.024;2022-08-19T01:14:51;97764.56;;;21.22;77.39
72587;BME280;60621;49.576;11.024;2022-08-19T01:15:57;97764.25;;;21.20;77.23
72587;BME280;60621;49.576;11.024;2022-08-19T01:17:00;97766.94;;;21.20;77.52
72587;BME280;60621;49.576;11.024;2022-08-19T01:18:07;97763.63;;;21.16;77.52
72587;BME280;60621;49.576;11.024;2022-08-19T01:19:18;97773.50;;;21.19;77.75
72587;BME280;60621;49.576;11.024;2022-08-19T01:20:24;97770.47;;;21.17;77.39
72587;BME280;60621;49.576;11.024;2022-08-19T01:21:41;97772.59;;;21.22;77.44
72587;BME280;60621;49.576;11.024;2022-08-19T01:22:49;97769.00;;;21.16;77.18
72587;BME280;60621;49.576;11.024;2022-08-19T01:23:51;97768.00;;;21.22;77.08
72587;BME280;60621;49.576;11.024;2022-08-19T01:24:53;97777.03;;;21.16;76.82
72587;BME280;60621;49.576;11.024;2022-08-19T01:25:56;97773.03;;;21.20;76.93
72587;BME280;60621;49.576;11.024;2022-08-19T01:26:59;97777.97;;;21.22;76.56
72587;BME280;60621;49.576;11.024;2022-08-19T01:28:00;97775.72;;;21.20;77.04
72587;BME280;60621;49.576;11.024;2022-08-19T01:29:11;97780.22;;;21.23;76.58
72587;BME280;60621;49.576;11.024;2022-08-19T01:30:30;97770.41;;;21.30;76.49
72587;BME280;60621;49.576;11.024;2022-08-19T01:31:32;97774.63;;;21.31;76.11
72587;BME280;60621;49.576;11.024;2022-08-19T01:32:34;97779.22;;;21.30;76.08
72587;BME280;60621;49.576;11.024;2022-08-19T01:33:36;97782.59;;;21.21;76.59
72587;BME280;60621;49.576;11.024;2022-08-19T01:34:38;97777.38;;;21.18;77.19
72587;BME280;60621;49.576;11.024;2022-08-19T01:35:41;97783.22;;;21.26;76.41
72587;BME280;60621;49.576;11.024;2022-08-19T01:36:45;97777.72;;;21.29;76.40
72587;BME280;60621;49.576;11.024;2022-08-19T01:38:55;97775.03;;;21.29;76.62
72587;BME280;60621;49.576;11.024;2022-08-19T01:39:57;97774.75;;;21.27;76.38
72587;BME280;60621;49.576;11.024;2022-08-19T01:40:58;97769.91;;;21.22;76.83
72587;BME280;60621;49.576;11.024;2022-08-19T01:42:03;97772.59;;;21.22;77.04
72587;BME280;60621;49.576;11.024;2022-08-19T01:43:05;97771.84;;;21.21;76.62
72587;BME280;60621;49.576;11.024;2022-08-19T01:44:08;97780.16;;;21.14;77.07
72587;BME280;60621;49.576;11.024;2022-08-19T01:45:22;97792.19;;;21.10;77.24
72587;BME280;60621;49.576;11.024;2022-08-19T01:46:24;97790.72;;;21.09;77.19
72587;BME280;60621;49.576;11.024;2022-08-19T01:47:25;97789.97;;;21.08;77.01
72587;BME280;60621;49.576;11.024;2022-08-19T01:48:27;97786.97;;;21.06;76.92
72587;BME280;60621;49.576;11.024;2022-08-19T01:49:33;97789.53;;;21.10;76.94
72587;BME280;60621;49.576;11.024;2022-08-19T01:50:36;97790.56;;;21.12;76.79
72587;BME280;60621;49.576;11.024;2022-08-19T01:51:38;97785.84;;;21.16;76.53
72587;BME280;60621;49.576;11.024;2022-08-19T01:52:42;97787.34;;;21.17;76.56
72587;BME280;60621;49.576;11.024;2022-08-19T01:53:47;97787.94;;;21.21;76.66
72587;BME280;60621;49.576;11.024;2022-08-19T01:54:49;97788.28;;;21.23;76.55
72587;BME280;60621;49.576;11.024;2022-08-19T01:55:50;97794.81;;;21.22;76.75
72587;BME280;60621;49.576;11.024;2022-08-19T01:56:56;97791.25;;;21.26;76.75
72587;BME280;60621;49.576;11.024;2022-08-19T01:58:02;97804.78;;;21.22;76.70
72587;BME280;60621;49.576;11.024;2022-08-19T01:59:10;97804.94;;;21.18;77.01
72587;BME280;60621;49.576;11.024;2022-08-19T02:00:15;97808.66;;;21.21;76.75
72587;BME280;60621;49.576;11.024;2022-08-19T02:01:17;97804.38;;;21.23;76.73
72587;BME280;60621;49.576;11.024;2022-08-19T02:02:19;97810.28;;;21.18;77.14
72587;BME280;60621;49.576;11.024;2022-08-19T02:03:20;97813.09;;;21.15;77.65
72587;BME280;60621;49.576;11.024;2022-08-19T02:04:22;97813.41;;;21.17;77.73
72587;BME280;60621;49.576;11.024;2022-08-19T02:05:24;97806.13;;;21.17;77.67
72587;BME280;60621;49.576;11.024;2022-08-19T02:06:27;97810.41;;;21.15;77.11
72587;BME280;60621;49.576;11.024;2022-08-19T02:07:29;97813.09;;;21.15;77.30
72587;BME280;60621;49.576;11.024;2022-08-19T02:08:32;97803.44;;;21.17;77.57
72587;BME280;60621;49.576;11.024;2022-08-19T02:09:35;97801.19;;;21.16;77.65
72587;BME280;60621;49.576;11.024;2022-08-19T02:10:41;97790.78;;;21.18;77.69
72587;BME280;60621;49.576;11.024;2022-08-19T02:11:43;97785.41;;;21.18;77.63
72587;BME280;60621;49.576;11.024;2022-08-19T02:12:45;97790.78;;;21.18;77.90
72587;BME280;60621;49.576;11.024;2022-08-19T02:13:53;97785.09;;;21.16;77.40
72587;BME280;60621;49.576;11.024;2022-08-19T02:14:55;97785.75;;;21.07;77.76
72587;BME280;60621;49.576;11.024;2022-08-19T02:15:56;97780.97;;;21.02;77.76
72587;BME280;60621;49.576;11.024;2022-08-19T02:17:00;97785.91;;;21.04;78.19
72587;BME280;60621;49.576;11.024;2022-08-19T02:18:02;97783.53;;;21.06;78.02
72587;BME280;60621;49.576;11.024;2022-08-19T02:19:04;97786.66;;;21.04;78.03
72587;BME280;60621;49.576;11.024;2022-08-19T02:20:06;97785.75;;;21.07;77.82
72587;BME280;60621;49.576;11.024;2022-08-19T02:21:08;97785.53;;;21.14;77.83
72587;BME280;60621;49.576;11.024;2022-08-19T02:22:09;97797.06;;;21.24;77.52
72587;BME280;60621;49.576;11.024;2022-08-19T02:23:12;97795.25;;;21.21;77.42
72587;BME280;60621;49.576;11.024;2022-08-19T02:24:16;97814.66;;;21.25;77.41
72587;BME280;60621;49.576;11.024;2022-08-19T02:25:18;97815.22;;;21.20;77.00
72587;BME280;60621;49.576;11.024;2022-08-19T02:26:19;97817.19;;;21.07;77.72
72587;BME280;60621;49.576;11.024;2022-08-19T02:27:22;97814.09;;;21.08;77.91
72587;BME280;60621;49.576;11.024;2022-08-19T02:28:23;97817.38;;;21.12;77.50
72587;BME280;60621;49.576;11.024;2022-08-19T02:29:25;97824.06;;;21.08;77.75
72587;BME280;60621;49.576;11.024;2022-08-19T02:30:26;97828.66;;;21.07;77.42
72587;BME280;60621;49.576;11.024;2022-08-19T02:31:28;97826.31;;;21.09;76.86
72587;BME280;60621;49.576;11.024;2022-08-19T02:32:29;97826.19;;;21.13;76.84
72587;BME280;60621;49.576;11.024;2022-08-19T02:33:31;97826.94;;;21.13;77.03
72587;BME280;60621;49.576;11.024;2022-08-19T02:34:34;97830.69;;;21.16;76.97
72587;BME280;60621;49.576;11.024;2022-08-19T02:35:35;97839.16;;;21.14;76.54
72587;BME280;60621;49.576;11.024;2022-08-19T02:36:37;97833.91;;;21.11;76.98
72587;BME280;60621;49.576;11.024;2022-08-19T02:37:43;97835.22;;;21.06;76.98
72587;BME280;60621;49.576;11.024;2022-08-19T02:39:03;97835.56;;;21.08;76.82
72587;BME280;60621;49.576;11.024;2022-08-19T02:40:05;97836.16;;;21.12;76.74
72587;BME280;60621;49.576;11.024;2022-08-19T02:41:28;97834.50;;;21.28;76.68
72587;BME280;60621;49.576;11.024;2022-08-19T02:42:30;97831.38;;;21.29;76.39
72587;BME280;60621;49.576;11.024;2022-08-19T02:43:33;97832.13;;;21.30;76.53
72587;BME280;60621;49.576;11.024;2022-08-19T02:44:38;97831.81;;;21.28;76.49
72587;BME280;60621;49.576;11.024;2022-08-19T02:45:40;97831.81;;;21.28;76.80
72587;BME280;60621;49.576;11.024;2022-08-19T02:46:42;97838.66;;;21.29;76.74
72587;BME280;60621;49.576;11.024;2022-08-19T02:47:49;97833.53;;;21.21;76.65
72587;BME280;60621;49.576;11.024;2022-08-19T02:48:52;97841.16;;;21.23;76.44
72587;BME280;60621;49.576;11.024;2022-08-19T02:49:54;97841.91;;;21.23;76.61
72587;BME280;60621;49.576;11.024;2022-08-19T02:50:55;97845.97;;;21.28;76.37
72587;BME280;60621;49.576;11.024;2022-08-19T02:51:57;97844.38;;;21.31;76.32
72587;BME280;60621;49.576;11.024;2022-08-19T02:52:58;97848.22;;;21.30;76.20
72587;BME280;60621;49.576;11.024;2022-08-19T02:54:01;97846.09;;;21.25;76.36
72587;BME280;60621;49.576;11.024;2022-08-19T02:55:04;97849.53;;;21.25;76.55
72587;BME280;60621;49.576;11.024;2022-08-19T02:56:07;97849.22;;;21.23;76.78
72587;BME280;60621;49.576;11.024;2022-08-19T02:57:09;97848.47;;;21.22;77.20
72587;BME280;60621;49.576;11.024;2022-08-19T02:58:11;97849.41;;;21.29;76.34
72587;BME280;60621;49.576;11.024;2022-08-19T02:59:13;97851.63;;;21.30;76.29
72587;BME280;60621;49.576;11.024;2022-08-19T03:00:15;97846.63;;;21.32;75.45
72587;BME280;60621;49.576;11.024;2022-08-19T03:01:26;97850.59;;;21.28;75.68
72587;BME280;60621;49.576;11.024;2022-08-19T03:02:28;97846.09;;;21.25;76.25
72587;BME280;60621;49.576;11.024;2022-08-19T03:03:32;97841.81;;;21.27;76.51
72587;BME280;60621;49.576;11.024;2022-08-19T03:04:34;97845.66;;;21.26;76.61
72587;BME280;60621;49.576;11.024;2022-08-19T03:05:35;97848.31;;;21.26;76.42
72587;BME280;60621;49.576;11.024;2022-08-19T03:06:48;97849.63;;;21.21;76.42
72587;BME280;60621;49.576;11.024;2022-08-19T03:07:50;97854.25;;;21.21;76.60
72587;BME280;60621;49.576;11.024;2022-08-19T03:08:52;97853.63;;;21.17;76.92
72587;BME280;60621;49.576;11.024;2022-08-19T03:09:54;97854.69;;;21.19;76.90
72587;BME280;60621;49.576;11.024;2022-08-19T03:10:55;97856.19;;;21.20;76.44
72587;BME280;60621;49.576;11.024;2022-08-19T03:11:57;97853.06;;;21.22;76.62
72587;BME280;60621;49.576;11.024;2022-08-19T03:12:58;97854.25;;;21.21;76.35
72587;BME280;60621;49.576;11.024;2022-08-19T03:14:07;97848.16;;;21.20;76.34
72587;BME280;60621;49.576;11.024;2022-08-19T03:15:09;97844.72;;;21.20;76.32
72587;BME280;60621;49.576;11.024;2022-08-19T03:16:11;97837.75;;;21.22;76.48
72587;BME280;60621;49.576;11.024;2022-08-19T03:17:13;97841.34;;;21.29;76.26
72587;BME280;60621;49.576;11.024;2022-08-19T03:18:15;97828.69;;;21.29;75.96
72587;BME280;60621;49.576;11.024;2022-08-19T03:19:19;97826.25;;;21.22;76.07
72587;BME280;60621;49.576;11.024;2022-08-19T03:20:22;97831.41;;;21.16;76.48
72587;BME280;60621;49.576;11.024;2022-08-19T03:21:26;97824.56;;;21.15;76.45
72587;BME280;60621;49.576;11.024;2022-08-19T03:22:27;97824.44;;;21.19;76.91
72587;BME280;60621;49.576;11.024;2022-08-19T03:23:30;97821.59;;;21.13;76.67
72587;BME280;60621;49.576;11.024;2022-08-19T03:24:31;97825.75;;;21.14;76.83
72587;BME280;60621;49.576;11.024;2022-08-19T03:25:38;97824.91;;;21.17;76.48
72587;BME280;60621;49.576;11.024;2022-08-19T03:26:44;97826.81;;;21.17;76.40
72587;BME280;60621;49.576;11.024;2022-08-19T03:27:46;97831.13;;;21.14;76.34
72587;BME280;60621;49.576;11.024;2022-08-19T03:28:50;97825.25;;;21.07;76.91
72587;BME280;60621;49.576;11.024;2022-08-19T03:29:59;97823.19;;;21.11;76.48
72587;BME280;60621;49.576;11.024;2022-08-19T03:31:05;97820.41;;;21.14;76.64
72587;BME280;60621;49.576;11.024;2022-08-19T03:32:27;97815.78;;;21.15;76.75
72587;BME280;60621;49.576;11.024;2022-08-19T03:33:34;97814.59;;;21.16;76.12
72587;BME280;60621;49.576;11.024;2022-08-19T03:34:36;97819.66;;;21.14;76.41
72587;BME280;60621;49.576;11.024;2022-08-19T03:35:38;97814.69;;;21.12;76.50
72587;BME280;60621;49.576;11.024;2022-08-19T03:36:40;97813.22;;;21.11;76.01
72587;BME280;60621;49.576;11.024;2022-08-19T03:37:42;97811.75;;;20.97;76.44
72587;BME280;60621;49.576;11.024;2022-08-19T03:38:46;97805.34;;;20.95;76.45
72587;BME280;60621;49.576;11.024;2022-08-19T03:39:56;97800.06;;;21.04;76.24
72587;BME280;60621;49.576;11.024;2022-08-19T03:41:02;97799.63;;;21.06;76.32
72587;BME280;60621;49.576;11.024;2022-08-19T03:42:04;97794.56;;;21.08;76.18
72587;BME280;60621;49.576;11.024;2022-08-19T03:43:26;97790.09;;;21.05;76.10
72587;BME280;60621;49.576;11.024;2022-08-19T03:44:29;97790.19;;;21.01;76.02
72587;BME280;60621;49.576;11.024;2022-08-19T03:45:31;97786.22;;;21.06;75.81
72587;BME280;60621;49.576;11.024;2022-08-19T03:46:33;97791.22;;;20.94;76.13
72587;BME280;60621;49.576;11.024;2022-08-19T03:47:35;97790.88;;;20.92;76.43
72587;BME280;60621;49.576;11.024;2022-08-19T03:48:39;97787.91;;;20.90;76.43
72587;BME280;60621;49.576;11.024;2022-08-19T03:49:40;97793.38;;;20.87;76.77
72587;BME280;60621;49.576;11.024;2022-08-19T03:50:42;97788.75;;;20.87;76.83
72587;BME280;60621;49.576;11.024;2022-08-19T03:51:44;97783.84;;;20.86;76.90
72587;BME280;60621;49.576;11.024;2022-08-19T03:52:50;97787.44;;;20.92;77.00
72587;BME280;60621;49.576;11.024;2022-08-19T03:53:54;97791.50;;;20.96;76.91
72587;BME280;60621;49.576;11.024;2022-08-19T03:54:56;97790.88;;;20.92;77.15
72587;BME280;60621;49.576;11.024;2022-08-19T03:55:58;97798.16;;;20.92;77.32
72587;BME280;60621;49.576;11.024;2022-08-19T03:57:06;97790.38;;;20.85;77.49
72587;BME280;60621;49.576;11.024;2022-08-19T03:58:07;97795.22;;;20.77;77.99
72587;BME280;60621;49.576;11.024;2022-08-19T03:59:13;97791.44;;;20.87;77.65
72587;BME280;60621;49.576;11.024;2022-08-19T04:00:15;97788.09;;;20.96;77.43
72587;BME280;60621;49.576;11.024;2022-08-19T04:01:20;97795.25;;;20.99;77.39
72587;BME280;60621;49.576;11.024;2022-08-19T04:02:35;97794.69;;;21.04;77.58
72587;BME280;60621;49.576;11.024;2022-08-19T04:03:37;97795.88;;;21.03;77.20
72587;BME280;60621;49.576;11.024;2022-08-19T04:04:41;97796.94;;;21.06;77.29
72587;BME280;60621;49.576;11.024;2022-08-19T04:05:45;97797.25;;;21.08;77.36
72587;BME280;60621;49.576;11.024;2022-08-19T04:06:48;97796.19;;;21.05;77.33
72587;BME280;60621;49.576;11.024;2022-08-19T04:07:49;97793.63;;;21.02;77.72
72587;BME280;60621;49.576;11.024;2022-08-19T04:08:53;97788.25;;;21.02;77.51
72587;BME280;60621;49.576;11.024;2022-08-19T04:09:55;97789.56;;;20.97;77.64
72587;BME280;60621;49.576;11.024;2022-08-19T04:10:57;97789.75;;;21.03;76.92
72587;BME280;60621;49.576;11.024;2022-08-19T04:12:02;97782.59;;;21.00;77.42
72587;BME280;60621;49.576;11.024;2022-08-19T04:13:04;97787.22;;;20.99;77.52
72587;BME280;60621;49.576;11.024;2022-08-19T04:14:09;97781.72;;;21.03;77.50
72587;BME280;60621;49.576;11.024;2022-08-19T04:15:11;97789.91;;;20.99;77.12
72587;BME280;60621;49.576;11.024;2022-08-19T04:16:14;97783.78;;;20.99;77.28
72587;BME280;60621;49.576;11.024;2022-08-19T04:17:15;97781.53;;;20.97;77.14
72587;BME280;60621;49.576;11.024;2022-08-19T04:18:17;97783.34;;;21.00;77.12
72587;BME280;60621;49.576;11.024;2022-08-19T04:19:19;97792.03;;;21.04;76.99
72587;BME280;60621;49.576;11.024;2022-08-19T04:20:21;97784.38;;;21.03;76.70
72587;BME280;60621;49.576;11.024;2022-08-19T04:21:25;97789.56;;;20.97;76.94
72587;BME280;60621;49.576;11.024;2022-08-19T04:22:27;97792.81;;;20.92;77.06
72587;BME280;60621;49.576;11.024;2022-08-19T04:23:29;97802.69;;;20.95;77.02
72587;BME280;60621;49.576;11.024;2022-08-19T04:24:33;97805.78;;;20.93;76.98
72587;BME280;60621;49.576;11.024;2022-08-19T04:25:37;97806.84;;;20.96;76.73
72587;BME280;60621;49.576;11.024;2022-08-19T04:26:39;97806.22;;;20.92;76.77
72587;BME280;60621;49.576;11.024;2022-08-19T04:27:41;97807.41;;;20.91;76.78
72587;BME280;60621;49.576;11.024;2022-08-19T04:28:48;97813.50;;;20.91;76.72
72587;BME280;60621;49.576;11.024;2022-08-19T04:29:50;97816.50;;;20.93;76.63
72587;BME280;60621;49.576;11.024;2022-08-19T04:30:54;97813.22;;;20.89;76.48
72587;BME280;60621;49.576;11.024;2022-08-19T04:31:58;97823.94;;;20.89;76.57
72587;BME280;60621;49.576;11.024;2022-08-19T04:32:59;97817.69;;;20.92;75.96
72587;BME280;60621;49.576;11.024;2022-08-19T04:34:04;97823.03;;;20.92;76.14
72587;BME280;60621;49.576;11.024;2022-08-19T04:35:06;97828.28;;;20.96;76.09
72587;BME280;60621;49.576;11.024;2022-08-19T04:36:23;97825.16;;;20.97;76.04
72587;BME280;60621;49.576;11.024;2022-08-19T04:37:26;97818.75;;;20.95;76.03
72587;BME280;60621;49.576;11.024;2022-08-19T04:38:35;97825.91;;;20.98;75.78
72587;BME280;60621;49.576;11.024;2022-08-19T04:39:37;97830.84;;;21.00;76.16
72587;BME280;60621;49.576;11.024;2022-08-19T04:41:02;97825.16;;;20.97;76.00
72587;BME280;60621;49.576;11.024;2022-08-19T04:42:23;97830.84;;;21.00;75.96
72587;BME280;60621;49.576;11.024;2022-08-19T04:43:40;97827.66;;;20.92;76.22
72587;BME280;60621;49.576;11.024;2022-08-19T04:44:42;97833.13;;;20.88;76.14
72587;BME280;60621;49.576;11.024;2022-08-19T04:45:46;97841.19;;;20.88;76.13
72587;BME280;60621;49.576;11.024;2022-08-19T04:46:49;97839.28;;;20.89;76.46
72587;BME280;60621;49.576;11.024;2022-08-19T04:47:55;97843.44;;;20.90;76.46
72587;BME280;60621;49.576;11.024;2022-08-19T04:49:20;97843.56;;;20.86;76.55
72587;BME280;60621;49.576;11.024;2022-08-19T04:50:25;97852.97;;;20.91;75.88
72587;BME280;60621;49.576;11.024;2022-08-19T04:51:27;97851.91;;;20.88;75.98
72587;BME280;60621;49.576;11.024;2022-08-19T04:52:29;97855.88;;;20.84;76.25
72587;BME280;60621;49.576;11.024;2022-08-19T04:53:35;97858.78;;;20.89;76.01
72587;BME280;60621;49.576;11.024;2022-08-19T04:54:38;97858.78;;;20.89;75.99
72587;BME280;60621;49.576;11.024;2022-08-19T04:55:41;97864.44;;;20.91;75.88
72587;BME280;60621;49.576;11.024;2022-08-19T04:56:43;97865.63;;;20.90;76.32
72587;BME280;60621;49.576;11.024;2022-08-19T04:57:45;97871.44;;;20.89;76.20
72587;BME280;60621;49.576;11.024;2022-08-19T04:58:47;97869.91;;;20.88;76.04
72587;BME280;60621;49.576;11.024;2022-08-19T04:59:49;97871.09;;;20.87;76.44
72587;BME280;60621;49.576;11.024;2022-08-19T05:00:50;97873.25;;;20.92;76.06
72587;BME280;60621;49.576;11.024;2022-08-19T05:01:52;97875.16;;;20.91;76.29
72587;BME280;60621;49.576;11.024;2022-08-19T05:02:54;97864.88;;;20.90;76.03
72587;BME280;60621;49.576;11.024;2022-08-19T05:03:57;97877.09;;;20.91;76.20
72587;BME280;60621;49.576;11.024;2022-08-19T05:04:59;97877.28;;;20.96;76.23
72587;BME280;60621;49.576;11.024;2022-08-19T05:06:10;97873.44;;;20.97;75.62
72587;BME280;60621;49.576;11.024;2022-08-19T05:07:12;97872.69;;;20.97;75.56
72587;BME280;60621;49.576;11.024;2022-08-19T05:08:16;97880.41;;;20.95;75.76
72587;BME280;60621;49.576;11.024;2022-08-19T05:09:31;97871.75;;;20.91;76.02
72587;BME280;60621;49.576;11.024;2022-08-19T05:10:53;97875.28;;;20.88;76.42
72587;BME280;60621;49.576;11.024;2022-08-19T05:11:55;97874.88;;;20.89;76.54
72587;BME280;60621;49.576;11.024;2022-08-19T05:12:56;97876.25;;;20.94;76.37
72587;BME280;60621;49.576;11.024;2022-08-19T05:13:59;97871.50;;;20.98;76.29
72587;BME280;60621;49.576;11.024;2022-08-19T05:15:04;97882.56;;;21.00;76.03
72587;BME280;60621;49.576;11.024;2022-08-19T05:16:06;97879.88;;;21.00;76.67
72587;BME280;60621;49.576;11.024;2022-08-19T05:17:08;97888.47;;;21.17;75.40
72587;BME280;60621;49.576;11.024;2022-08-19T05:18:28;97888.75;;;21.10;75.79
72587;BME280;60621;49.576;11.024;2022-08-19T05:19:48;97889.47;;;21.10;75.78
72587;BME280;60621;49.576;11.024;2022-08-19T05:21:10;97890.88;;;21.15;75.76
72587;BME280;60621;49.576;11.024;2022-08-19T05:22:31;97895.66;;;21.20;75.34
72587;BME280;60621;49.576;11.024;2022-08-19T05:23:38;97902.13;;;21.22;74.96
72587;BME280;60621;49.576;11.024;2022-08-19T05:24:40;97894.38;;;21.25;75.14
72587;BME280;60621;49.576;11.024;2022-08-19T05:26:02;97902.53;;;21.21;75.60
72587;BME280;60621;49.576;11.024;2022-08-19T05:27:04;97907.03;;;21.24;75.50
72587;BME280;60621;49.576;11.024;2022-08-19T05:28:06;97909.06;;;21.33;74.95
72587;BME280;60621;49.576;11.024;2022-08-19T05:29:09;97907.03;;;21.37;73.95
72587;BME280;60621;49.576;11.024;2022-08-19T05:30:11;97909.16;;;21.42;74.06
72587;BME280;60621;49.576;11.024;2022-08-19T05:31:13;97909.56;;;21.40;73.98
72587;BME280;60621;49.576;11.024;2022-08-19T05:32:15;97908.06;;;21.39;73.99
72587;BME280;60621;49.576;11.024;2022-08-19T05:33:17;97909.25;;;21.38;74.09
72587;BME280;60621;49.576;11.024;2022-08-19T05:34:20;97910.56;;;21.34;74.30
72587;BME280;60621;49.576;11.024;2022-08-19T05:35:23;97915.81;;;21.37;74.29
72587;BME280;60621;49.576;11.024;2022-08-19T05:36:26;97918.31;;;21.32;74.38
72587;BME280;60621;49.576;11.024;2022-08-19T05:37:28;97922.34;;;21.36;74.19